sensor_id;sensor_type;location;lat;lon;timestamp;P1;durP1;ratioP1;P2;durP2;ratioP2
20810;SDS011;10566;52.928;10.522;2022-10-23T00:00:33;14.43;;;8.83;;
20810;SDS011;10566;52.928;10.522;2022-10-23T00:03:00;12.90;;;7.50;;
20810;SDS011;10566;52.928;10.522;2022-10-23T00:05:26;10.80;;;6.67;;
20810;SDS011;10566;52.928;10.522;2022-10-23T00:07:53;9.13;;;6.30;;
20810;SDS011;10566;52.928;10.522;2022-10-23T00:10:20;13.10;;;6.40;;
20810;SDS011;10566;52.928;10.522;2022-10-23T00:12:46;12.27;;;6.43;;
20810;SDS011;10566;52.928;10.522;2022-10-23T00:15:13;12.33;;;6.33;;
20810;SDS011;10566;52.928;10.522;2022-10-23T00:17:39;12.20;;;6.57;;
20810;SDS011;10566;52.928;10.522;2022-10-23T00:20:06;11.57;;;6.27;;
20810;SDS011;10566;52.928;10.522;2022-10-23T00:22:32;11.10;;;5.83;;
20810;SDS011;10566;52.928;10.522;2022-10-23T00:24:58;10.73;;;6.20;;
20810;SDS011;10566;52.928;10.522;2022-10-23T00:27:24;11.10;;;6.53;;
20810;SDS011;10566;52.928;10.522;2022-10-23T00:29:50;12.07;;;6.43;;
20810;SDS011;10566;52.928;10.522;2022-10-23T00:32:16;10.07;;;6.60;;
20810;SDS011;10566;52.928;10.522;2022-10-23T00:34:43;11.93;;;6.57;;
20810;SDS011;10566;52.928;10.522;2022-10-23T00:37:09;11.33;;;6.90;;
20810;SDS011;10566;52.928;10.522;2022-10-23T00:39:35;12.47;;;6.17;;
20810;SDS011;10566;52.928;10.522;2022-10-23T00:42:01;14.53;;;6.03;;
20810;SDS011;10566;52.928;10.522;2022-10-23T00:46:53;11.93;;;6.30;;
20810;SDS011;10566;52.928;10.522;2022-10-23T00:49:19;14.30;;;6.50;;
20810;SDS011;10566;52.928;10.522;2022-10-23T00:51:47;12.33;;;7.17;;
20810;SDS011;10566;52.928;10.522;2022-10-23T00:54:15;13.03;;;6.77;;
20810;SDS011;10566;52.928;10.522;2022-10-23T00:56:43;11.63;;;7.17;;
20810;SDS011;10566;52.928;10.522;2022-10-23T00:59:09;11.53;;;6.33;;
20810;SDS011;10566;52.928;10.522;2022-10-23T01:01:36;10.30;;;6.20;;
20810;SDS011;10566;52.928;10.522;2022-10-23T01:04:02;12.27;;;6.17;;
20810;SDS011;10566;52.928;10.522;2022-10-23T01:06:34;10.60;;;6.30;;
20810;SDS011;10566;52.928;10.522;2022-10-23T01:09:27;10.40;;;6.23;;
20810;SDS011;10566;52.928;10.522;2022-10-23T01:12:00;10.53;;;6.37;;
20810;SDS011;10566;52.928;10.522;2022-10-23T01:14:36;12.33;;;5.80;;
20810;SDS011;10566;52.928;10.522;2022-10-23T01:17:22;10.87;;;6.43;;
20810;SDS011;10566;52.928;10.522;2022-10-23T01:19:57;11.27;;;6.77;;
20810;SDS011;10566;52.928;10.522;2022-10-23T01:25:08;12.40;;;6.50;;
20810;SDS011;10566;52.928;10.522;2022-10-23T01:27:41;10.77;;;5.60;;
20810;SDS011;10566;52.928;10.522;2022-10-23T01:30:13;13.53;;;6.23;;
20810;SDS011;10566;52.928;10.522;2022-10-23T01:32:43;9.07;;;5.93;;
20810;SDS011;10566;52.928;10.522;2022-10-23T01:35:18;10.73;;;6.03;;
20810;SDS011;10566;52.928;10.522;2022-10-23T01:37:48;11.53;;;5.70;;
20810;SDS011;10566;52.928;10.522;2022-10-23T01:40:27;9.43;;;5.87;;
20810;SDS011;10566;52.928;10.522;2022-10-23T01:42:55;9.93;;;5.23;;
20810;SDS011;10566;52.928;10.522;2022-10-23T01:45:25;10.43;;;5.63;;
20810;SDS011;10566;52.928;10.522;2022-10-23T01:47:52;12.57;;;5.43;;
20810;SDS011;10566;52.928;10.522;2022-10-23T01:50:19;8.33;;;5.20;;
20810;SDS011;10566;52.928;10.522;2022-10-23T01:52:47;15.50;;;5.37;;
20810;SDS011;10566;52.928;10.522;2022-10-23T01:55:13;10.13;;;5.37;;
20810;SDS011;10566;52.928;10.522;2022-10-23T01:57:39;8.87;;;5.27;;
20810;SDS011;10566;52.928;10.522;2022-10-23T02:00:07;11.47;;;5.03;;
20810;SDS011;10566;52.928;10.522;2022-10-23T02:02:34;8.87;;;4.80;;
20810;SDS011;10566;52.928;10.522;2022-10-23T02:05:08;7.20;;;4.40;;
20810;SDS011;10566;52.928;10.522;2022-10-23T02:07:36;10.43;;;5.23;;
20810;SDS011;10566;52.928;10.522;2022-10-23T02:10:03;8.47;;;4.80;;
20810;SDS011;10566;52.928;10.522;2022-10-23T02:12:39;11.17;;;5.13;;
20810;SDS011;10566;52.928;10.522;2022-10-23T02:15:09;9.00;;;4.67;;
20810;SDS011;10566;52.928;10.522;2022-10-23T02:18:00;8.30;;;4.57;;
20810;SDS011;10566;52.928;10.522;2022-10-23T02:20:28;9.90;;;5.17;;
20810;SDS011;10566;52.928;10.522;2022-10-23T02:23:06;12.43;;;5.37;;
20810;SDS011;10566;52.928;10.522;2022-10-23T02:25:38;9.83;;;4.97;;
20810;SDS011;10566;52.928;10.522;2022-10-23T02:28:08;8.10;;;5.03;;
20810;SDS011;10566;52.928;10.522;2022-10-23T02:30:35;8.57;;;5.00;;
20810;SDS011;10566;52.928;10.522;2022-10-23T02:33:02;8.83;;;5.20;;
20810;SDS011;10566;52.928;10.522;2022-10-23T02:35:29;7.00;;;4.67;;
20810;SDS011;10566;52.928;10.522;2022-10-23T02:37:56;10.60;;;5.47;;
20810;SDS011;10566;52.928;10.522;2022-10-23T02:40:23;8.50;;;5.17;;
20810;SDS011;10566;52.928;10.522;2022-10-23T02:42:52;9.47;;;4.90;;
20810;SDS011;10566;52.928;10.522;2022-10-23T02:47:58;9.40;;;5.20;;
20810;SDS011;10566;52.928;10.522;2022-10-23T02:57:54;12.03;;;5.53;;
20810;SDS011;10566;52.928;10.522;2022-10-23T03:00:22;9.90;;;5.53;;
20810;SDS011;10566;52.928;10.522;2022-10-23T03:02:54;13.47;;;5.90;;
20810;SDS011;10566;52.928;10.522;2022-10-23T03:05:22;12.30;;;5.60;;
20810;SDS011;10566;52.928;10.522;2022-10-23T03:07:49;9.13;;;5.73;;
20810;SDS011;10566;52.928;10.522;2022-10-23T03:10:16;12.07;;;5.40;;
20810;SDS011;10566;52.928;10.522;2022-10-23T03:12:42;9.93;;;5.80;;
20810;SDS011;10566;52.928;10.522;2022-10-23T03:15:09;12.13;;;5.20;;
20810;SDS011;10566;52.928;10.522;2022-10-23T03:17:36;12.30;;;5.60;;
20810;SDS011;10566;52.928;10.522;2022-10-23T03:20:03;11.57;;;5.87;;
20810;SDS011;10566;52.928;10.522;2022-10-23T03:22:29;9.93;;;5.60;;
20810;SDS011;10566;52.928;10.522;2022-10-23T03:24:55;10.43;;;5.53;;
20810;SDS011;10566;52.928;10.522;2022-10-23T03:27:21;13.23;;;6.03;;
20810;SDS011;10566;52.928;10.522;2022-10-23T03:29:47;14.60;;;5.20;;
20810;SDS011;10566;52.928;10.522;2022-10-23T03:32:13;13.30;;;5.50;;
20810;SDS011;10566;52.928;10.522;2022-10-23T03:34:39;12.60;;;5.37;;
20810;SDS011;10566;52.928;10.522;2022-10-23T03:37:05;9.03;;;5.17;;
20810;SDS011;10566;52.928;10.522;2022-10-23T03:39:31;12.80;;;5.40;;
20810;SDS011;10566;52.928;10.522;2022-10-23T03:41:57;9.90;;;5.13;;
20810;SDS011;10566;52.928;10.522;2022-10-23T03:44:23;9.77;;;4.77;;
20810;SDS011;10566;52.928;10.522;2022-10-23T03:46:49;13.40;;;5.47;;
20810;SDS011;10566;52.928;10.522;2022-10-23T03:49:15;13.23;;;6.00;;
20810;SDS011;10566;52.928;10.522;2022-10-23T03:51:42;12.60;;;5.63;;
20810;SDS011;10566;52.928;10.522;2022-10-23T03:54:08;12.60;;;5.60;;
20810;SDS011;10566;52.928;10.522;2022-10-23T03:56:34;8.17;;;4.57;;
20810;SDS011;10566;52.928;10.522;2022-10-23T03:59:00;9.50;;;5.17;;
20810;SDS011;10566;52.928;10.522;2022-10-23T04:01:26;12.97;;;5.70;;
20810;SDS011;10566;52.928;10.522;2022-10-23T04:03:53;10.33;;;5.57;;
20810;SDS011;10566;52.928;10.522;2022-10-23T04:06:19;8.20;;;5.07;;
20810;SDS011;10566;52.928;10.522;2022-10-23T04:08:45;8.57;;;5.10;;
20810;SDS011;10566;52.928;10.522;2022-10-23T04:11:11;12.00;;;5.70;;
20810;SDS011;10566;52.928;10.522;2022-10-23T04:13:37;9.30;;;5.27;;
20810;SDS011;10566;52.928;10.522;2022-10-23T04:16:03;8.87;;;5.17;;
20810;SDS011;10566;52.928;10.522;2022-10-23T04:18:29;12.37;;;5.37;;
20810;SDS011;10566;52.928;10.522;2022-10-23T04:20:55;13.40;;;5.33;;
20810;SDS011;10566;52.928;10.522;2022-10-23T04:23:21;13.03;;;6.03;;
20810;SDS011;10566;52.928;10.522;2022-10-23T04:25:47;13.90;;;5.10;;
20810;SDS011;10566;52.928;10.522;2022-10-23T04:28:13;14.03;;;5.37;;
20810;SDS011;10566;52.928;10.522;2022-10-23T04:30:39;12.57;;;5.90;;
20810;SDS011;10566;52.928;10.522;2022-10-23T04:33:05;13.93;;;6.07;;
20810;SDS011;10566;52.928;10.522;2022-10-23T04:35:31;16.27;;;5.50;;
20810;SDS011;10566;52.928;10.522;2022-10-23T04:37:57;14.67;;;5.80;;
20810;SDS011;10566;52.928;10.522;2022-10-23T04:40:23;13.73;;;5.73;;
20810;SDS011;10566;52.928;10.522;2022-10-23T04:42:49;12.43;;;5.33;;
20810;SDS011;10566;52.928;10.522;2022-10-23T04:45:15;12.57;;;5.50;;
20810;SDS011;10566;52.928;10.522;2022-10-23T04:47:41;11.57;;;5.33;;
20810;SDS011;10566;52.928;10.522;2022-10-23T04:50:07;9.77;;;5.33;;
20810;SDS011;10566;52.928;10.522;2022-10-23T04:52:33;10.27;;;5.47;;
20810;SDS011;10566;52.928;10.522;2022-10-23T04:54:59;8.37;;;4.60;;
20810;SDS011;10566;52.928;10.522;2022-10-23T04:57:25;15.93;;;4.93;;
20810;SDS011;10566;52.928;10.522;2022-10-23T04:59:51;9.10;;;4.80;;
20810;SDS011;10566;52.928;10.522;2022-10-23T05:02:17;9.07;;;4.80;;
20810;SDS011;10566;52.928;10.522;2022-10-23T05:04:44;9.30;;;4.70;;
20810;SDS011;10566;52.928;10.522;2022-10-23T05:07:10;8.77;;;4.37;;
20810;SDS011;10566;52.928;10.522;2022-10-23T05:09:36;9.70;;;5.10;;
20810;SDS011;10566;52.928;10.522;2022-10-23T05:12:02;9.63;;;4.50;;
20810;SDS011;10566;52.928;10.522;2022-10-23T05:14:28;10.63;;;4.70;;
20810;SDS011;10566;52.928;10.522;2022-10-23T05:17:14;11.37;;;4.90;;
20810;SDS011;10566;52.928;10.522;2022-10-23T05:19:44;12.43;;;4.90;;
20810;SDS011;10566;52.928;10.522;2022-10-23T05:22:11;8.57;;;4.33;;
20810;SDS011;10566;52.928;10.522;2022-10-23T05:24:37;9.60;;;4.17;;
20810;SDS011;10566;52.928;10.522;2022-10-23T05:27:03;15.60;;;5.13;;
20810;SDS011;10566;52.928;10.522;2022-10-23T05:29:29;9.73;;;5.10;;
20810;SDS011;10566;52.928;10.522;2022-10-23T05:31:56;11.80;;;5.20;;
20810;SDS011;10566;52.928;10.522;2022-10-23T05:34:23;12.17;;;6.00;;
20810;SDS011;10566;52.928;10.522;2022-10-23T05:36:50;15.40;;;7.13;;
20810;SDS011;10566;52.928;10.522;2022-10-23T05:39:17;20.30;;;7.83;;
20810;SDS011;10566;52.928;10.522;2022-10-23T05:41:43;20.93;;;7.53;;
20810;SDS011;10566;52.928;10.522;2022-10-23T05:44:09;20.20;;;7.73;;
20810;SDS011;10566;52.928;10.522;2022-10-23T05:46:39;25.33;;;9.13;;
20810;SDS011;10566;52.928;10.522;2022-10-23T05:49:06;31.63;;;9.13;;
20810;SDS011;10566;52.928;10.522;2022-10-23T05:51:34;49.37;;;10.50;;
20810;SDS011;10566;52.928;10.522;2022-10-23T05:54:01;37.93;;;10.30;;
20810;SDS011;10566;52.928;10.522;2022-10-23T05:56:27;32.93;;;11.33;;
20810;SDS011;10566;52.928;10.522;2022-10-23T05:58:53;23.67;;;10.33;;
20810;SDS011;10566;52.928;10.522;2022-10-23T06:01:19;22.03;;;9.30;;
20810;SDS011;10566;52.928;10.522;2022-10-23T06:03:47;21.63;;;9.27;;
20810;SDS011;10566;52.928;10.522;2022-10-23T06:06:13;33.23;;;10.40;;
20810;SDS011;10566;52.928;10.522;2022-10-23T06:08:39;25.60;;;10.27;;
20810;SDS011;10566;52.928;10.522;2022-10-23T06:11:06;23.90;;;9.43;;
20810;SDS011;10566;52.928;10.522;2022-10-23T06:13:32;27.17;;;10.37;;
20810;SDS011;10566;52.928;10.522;2022-10-23T06:15:58;18.07;;;9.83;;
20810;SDS011;10566;52.928;10.522;2022-10-23T06:18:24;26.10;;;10.93;;
20810;SDS011;10566;52.928;10.522;2022-10-23T06:20:50;23.10;;;10.27;;
20810;SDS011;10566;52.928;10.522;2022-10-23T06:23:17;24.10;;;11.20;;
20810;SDS011;10566;52.928;10.522;2022-10-23T06:25:49;25.43;;;10.47;;
20810;SDS011;10566;52.928;10.522;2022-10-23T06:28:15;21.70;;;10.63;;
20810;SDS011;10566;52.928;10.522;2022-10-23T06:30:41;18.37;;;10.90;;
20810;SDS011;10566;52.928;10.522;2022-10-23T06:33:07;23.47;;;10.60;;
20810;SDS011;10566;52.928;10.522;2022-10-23T06:35:33;22.93;;;10.10;;
20810;SDS011;10566;52.928;10.522;2022-10-23T06:37:59;17.80;;;9.37;;
20810;SDS011;10566;52.928;10.522;2022-10-23T06:40:25;21.20;;;9.90;;
20810;SDS011;10566;52.928;10.522;2022-10-23T06:42:51;21.47;;;9.87;;
20810;SDS011;10566;52.928;10.522;2022-10-23T06:45:17;21.00;;;9.77;;
20810;SDS011;10566;52.928;10.522;2022-10-23T06:47:43;20.67;;;10.30;;
20810;SDS011;10566;52.928;10.522;2022-10-23T06:50:09;23.83;;;10.90;;
20810;SDS011;10566;52.928;10.522;2022-10-23T06:52:35;23.23;;;11.57;;
20810;SDS011;10566;52.928;10.522;2022-10-23T06:55:01;18.27;;;11.33;;
20810;SDS011;10566;52.928;10.522;2022-10-23T06:57:27;22.37;;;12.20;;
20810;SDS011;10566;52.928;10.522;2022-10-23T06:59:53;22.43;;;12.03;;
20810;SDS011;10566;52.928;10.522;2022-10-23T07:02:19;21.27;;;11.83;;
20810;SDS011;10566;52.928;10.522;2022-10-23T07:04:45;22.03;;;11.13;;
20810;SDS011;10566;52.928;10.522;2022-10-23T07:07:11;18.90;;;10.50;;
20810;SDS011;10566;52.928;10.522;2022-10-23T07:09:37;19.93;;;10.90;;
20810;SDS011;10566;52.928;10.522;2022-10-23T07:12:03;22.90;;;10.83;;
20810;SDS011;10566;52.928;10.522;2022-10-23T07:14:29;19.67;;;11.63;;
20810;SDS011;10566;52.928;10.522;2022-10-23T07:16:56;28.00;;;14.93;;
20810;SDS011;10566;52.928;10.522;2022-10-23T07:19:22;25.03;;;15.10;;
20810;SDS011;10566;52.928;10.522;2022-10-23T07:21:49;27.13;;;18.33;;
20810;SDS011;10566;52.928;10.522;2022-10-23T07:24:15;29.27;;;18.50;;
20810;SDS011;10566;52.928;10.522;2022-10-23T07:26:42;30.80;;;18.43;;
20810;SDS011;10566;52.928;10.522;2022-10-23T07:29:09;26.77;;;17.37;;
20810;SDS011;10566;52.928;10.522;2022-10-23T07:31:35;28.80;;;18.13;;
20810;SDS011;10566;52.928;10.522;2022-10-23T07:34:01;26.87;;;16.03;;
20810;SDS011;10566;52.928;10.522;2022-10-23T07:36:27;25.40;;;16.87;;
20810;SDS011;10566;52.928;10.522;2022-10-23T07:38:53;25.50;;;16.90;;
20810;SDS011;10566;52.928;10.522;2022-10-23T07:41:19;25.10;;;15.63;;
20810;SDS011;10566;52.928;10.522;2022-10-23T07:43:45;24.17;;;16.10;;
20810;SDS011;10566;52.928;10.522;2022-10-23T07:46:11;25.33;;;15.63;;
20810;SDS011;10566;52.928;10.522;2022-10-23T07:48:38;27.43;;;15.10;;
20810;SDS011;10566;52.928;10.522;2022-10-23T07:51:10;23.03;;;13.07;;
20810;SDS011;10566;52.928;10.522;2022-10-23T07:53:36;18.37;;;12.63;;
20810;SDS011;10566;52.928;10.522;2022-10-23T07:56:08;19.07;;;12.47;;
20810;SDS011;10566;52.928;10.522;2022-10-23T07:58:35;19.07;;;11.13;;
20810;SDS011;10566;52.928;10.522;2022-10-23T08:01:01;21.43;;;12.33;;
20810;SDS011;10566;52.928;10.522;2022-10-23T08:03:29;19.13;;;12.27;;
20810;SDS011;10566;52.928;10.522;2022-10-23T08:05:55;17.50;;;12.50;;
20810;SDS011;10566;52.928;10.522;2022-10-23T08:08:22;19.67;;;11.60;;
20810;SDS011;10566;52.928;10.522;2022-10-23T08:10:49;14.83;;;9.80;;
20810;SDS011;10566;52.928;10.522;2022-10-23T08:13:15;14.63;;;8.13;;
20810;SDS011;10566;52.928;10.522;2022-10-23T08:15:41;15.73;;;8.33;;
20810;SDS011;10566;52.928;10.522;2022-10-23T08:18:11;14.77;;;8.33;;
20810;SDS011;10566;52.928;10.522;2022-10-23T08:20:38;13.17;;;8.20;;
20810;SDS011;10566;52.928;10.522;2022-10-23T08:23:04;16.40;;;7.50;;
20810;SDS011;10566;52.928;10.522;2022-10-23T08:25:30;16.40;;;8.37;;
20810;SDS011;10566;52.928;10.522;2022-10-23T08:27:56;13.50;;;7.90;;
20810;SDS011;10566;52.928;10.522;2022-10-23T08:30:22;13.03;;;7.57;;
20810;SDS011;10566;52.928;10.522;2022-10-23T08:32:48;13.53;;;7.30;;
20810;SDS011;10566;52.928;10.522;2022-10-23T08:35:14;11.63;;;7.37;;
20810;SDS011;10566;52.928;10.522;2022-10-23T08:37:40;16.17;;;7.10;;
20810;SDS011;10566;52.928;10.522;2022-10-23T08:40:06;15.97;;;10.33;;
20810;SDS011;10566;52.928;10.522;2022-10-23T08:42:32;15.23;;;6.97;;
20810;SDS011;10566;52.928;10.522;2022-10-23T08:45:06;15.47;;;8.07;;
20810;SDS011;10566;52.928;10.522;2022-10-23T08:47:34;16.90;;;11.23;;
20810;SDS011;10566;52.928;10.522;2022-10-23T08:50:03;14.13;;;8.77;;
20810;SDS011;10566;52.928;10.522;2022-10-23T08:55:04;11.00;;;7.50;;
20810;SDS011;10566;52.928;10.522;2022-10-23T08:57:37;40.07;;;23.03;;
20810;SDS011;10566;52.928;10.522;2022-10-23T09:00:09;13.17;;;7.20;;
20810;SDS011;10566;52.928;10.522;2022-10-23T09:02:37;14.47;;;6.43;;
20810;SDS011;10566;52.928;10.522;2022-10-23T09:05:05;15.33;;;9.20;;
20810;SDS011;10566;52.928;10.522;2022-10-23T09:10:36;10.83;;;6.30;;
20810;SDS011;10566;52.928;10.522;2022-10-23T09:15:44;11.37;;;6.10;;
20810;SDS011;10566;52.928;10.522;2022-10-23T09:18:13;12.60;;;6.53;;
20810;SDS011;10566;52.928;10.522;2022-10-23T09:20:41;11.87;;;6.20;;
20810;SDS011;10566;52.928;10.522;2022-10-23T09:23:13;12.67;;;6.63;;
20810;SDS011;10566;52.928;10.522;2022-10-23T09:25:40;10.60;;;6.63;;
20810;SDS011;10566;52.928;10.522;2022-10-23T09:28:12;13.07;;;6.53;;
20810;SDS011;10566;52.928;10.522;2022-10-23T09:30:41;12.13;;;6.70;;
20810;SDS011;10566;52.928;10.522;2022-10-23T09:33:21;14.30;;;7.00;;
20810;SDS011;10566;52.928;10.522;2022-10-23T09:35:52;14.50;;;7.70;;
20810;SDS011;10566;52.928;10.522;2022-10-23T09:41:14;15.00;;;8.13;;
20810;SDS011;10566;52.928;10.522;2022-10-23T09:43:41;14.53;;;7.67;;
20810;SDS011;10566;52.928;10.522;2022-10-23T09:46:08;13.13;;;7.87;;
20810;SDS011;10566;52.928;10.522;2022-10-23T09:48:35;11.43;;;7.37;;
20810;SDS011;10566;52.928;10.522;2022-10-23T09:51:03;11.77;;;7.83;;
20810;SDS011;10566;52.928;10.522;2022-10-23T09:53:33;16.87;;;8.80;;
20810;SDS011;10566;52.928;10.522;2022-10-23T09:56:01;13.00;;;7.07;;
20810;SDS011;10566;52.928;10.522;2022-10-23T09:58:42;11.20;;;6.03;;
20810;SDS011;10566;52.928;10.522;2022-10-23T10:01:27;10.47;;;5.60;;
20810;SDS011;10566;52.928;10.522;2022-10-23T10:03:53;10.40;;;5.50;;
20810;SDS011;10566;52.928;10.522;2022-10-23T10:06:21;11.27;;;5.93;;
20810;SDS011;10566;52.928;10.522;2022-10-23T10:08:48;9.80;;;5.30;;
20810;SDS011;10566;52.928;10.522;2022-10-23T10:11:15;16.00;;;5.50;;
20810;SDS011;10566;52.928;10.522;2022-10-23T10:29:56;11.17;;;6.20;;
20810;SDS011;10566;52.928;10.522;2022-10-23T10:32:34;14.13;;;5.97;;
20810;SDS011;10566;52.928;10.522;2022-10-23T10:35:13;13.20;;;6.10;;
20810;SDS011;10566;52.928;10.522;2022-10-23T10:37:58;14.97;;;6.00;;
20810;SDS011;10566;52.928;10.522;2022-10-23T10:40:32;13.03;;;6.80;;
20810;SDS011;10566;52.928;10.522;2022-10-23T10:43:04;33.50;;;17.70;;
20810;SDS011;10566;52.928;10.522;2022-10-23T10:45:37;13.80;;;6.40;;
20810;SDS011;10566;52.928;10.522;2022-10-23T10:48:17;20.67;;;6.93;;
20810;SDS011;10566;52.928;10.522;2022-10-23T10:50:47;16.53;;;9.27;;
20810;SDS011;10566;52.928;10.522;2022-10-23T10:53:30;12.82;;;6.35;;
20810;SDS011;10566;52.928;10.522;2022-10-23T10:55:58;14.67;;;6.03;;
20810;SDS011;10566;52.928;10.522;2022-10-23T11:07:00;13.37;;;6.57;;
20810;SDS011;10566;52.928;10.522;2022-10-23T11:09:28;10.93;;;5.37;;
20810;SDS011;10566;52.928;10.522;2022-10-23T11:11:55;12.90;;;6.07;;
20810;SDS011;10566;52.928;10.522;2022-10-23T11:14:21;12.55;;;6.22;;
20810;SDS011;10566;52.928;10.522;2022-10-23T11:16:52;10.05;;;6.07;;
20810;SDS011;10566;52.928;10.522;2022-10-23T11:19:23;9.77;;;5.93;;
20810;SDS011;10566;52.928;10.522;2022-10-23T11:22:10;12.38;;;6.10;;
20810;SDS011;10566;52.928;10.522;2022-10-23T11:29:49;12.25;;;5.75;;
20810;SDS011;10566;52.928;10.522;2022-10-23T11:32:28;9.65;;;5.13;;
20810;SDS011;10566;52.928;10.522;2022-10-23T11:37:41;10.30;;;5.30;;
20810;SDS011;10566;52.928;10.522;2022-10-23T11:47:57;12.45;;;5.50;;
20810;SDS011;10566;52.928;10.522;2022-10-23T11:50:28;9.80;;;5.30;;
20810;SDS011;10566;52.928;10.522;2022-10-23T11:52:56;13.07;;;5.43;;
20810;SDS011;10566;52.928;10.522;2022-10-23T11:55:24;12.82;;;5.25;;
20810;SDS011;10566;52.928;10.522;2022-10-23T11:58:04;13.80;;;5.47;;
20810;SDS011;10566;52.928;10.522;2022-10-23T12:00:34;11.13;;;5.55;;
20810;SDS011;10566;52.928;10.522;2022-10-23T12:03:00;9.45;;;4.95;;
20810;SDS011;10566;52.928;10.522;2022-10-23T12:05:36;11.60;;;5.65;;
20810;SDS011;10566;52.928;10.522;2022-10-23T12:08:06;13.38;;;5.38;;
20810;SDS011;10566;52.928;10.522;2022-10-23T12:10:42;10.98;;;5.22;;
20810;SDS011;10566;52.928;10.522;2022-10-23T12:15:53;12.38;;;5.40;;
20810;SDS011;10566;52.928;10.522;2022-10-23T12:18:20;13.07;;;6.32;;
20810;SDS011;10566;52.928;10.522;2022-10-23T12:20:48;9.23;;;5.30;;
20810;SDS011;10566;52.928;10.522;2022-10-23T12:23:20;10.00;;;5.80;;
20810;SDS011;10566;52.928;10.522;2022-10-23T12:33:56;11.25;;;4.75;;
20810;SDS011;10566;52.928;10.522;2022-10-23T12:38:51;11.25;;;4.55;;
20810;SDS011;10566;52.928;10.522;2022-10-23T12:41:25;10.88;;;4.75;;
20810;SDS011;10566;52.928;10.522;2022-10-23T12:43:53;10.30;;;4.15;;
20810;SDS011;10566;52.928;10.522;2022-10-23T12:46:28;11.95;;;4.60;;
20810;SDS011;10566;52.928;10.522;2022-10-23T12:48:55;10.57;;;4.28;;
20810;SDS011;10566;52.928;10.522;2022-10-23T12:51:27;8.63;;;4.00;;
20810;SDS011;10566;52.928;10.522;2022-10-23T12:53:54;9.93;;;4.30;;
20810;SDS011;10566;52.928;10.522;2022-10-23T12:56:20;10.85;;;4.15;;
20810;SDS011;10566;52.928;10.522;2022-10-23T12:58:48;9.60;;;4.28;;
20810;SDS011;10566;52.928;10.522;2022-10-23T13:01:22;8.30;;;3.70;;
20810;SDS011;10566;52.928;10.522;2022-10-23T13:03:48;12.13;;;4.40;;
20810;SDS011;10566;52.928;10.522;2022-10-23T13:06:14;7.40;;;3.83;;
20810;SDS011;10566;52.928;10.522;2022-10-23T13:08:42;11.82;;;4.70;;
20810;SDS011;10566;52.928;10.522;2022-10-23T13:11:11;10.23;;;4.85;;
20810;SDS011;10566;52.928;10.522;2022-10-23T13:13:39;9.15;;;4.07;;
20810;SDS011;10566;52.928;10.522;2022-10-23T13:16:12;11.10;;;4.43;;
20810;SDS011;10566;52.928;10.522;2022-10-23T13:18:39;11.18;;;4.40;;
20810;SDS011;10566;52.928;10.522;2022-10-23T13:21:13;11.55;;;4.22;;
20810;SDS011;10566;52.928;10.522;2022-10-23T13:23:40;9.98;;;4.22;;
20810;SDS011;10566;52.928;10.522;2022-10-23T13:28:45;10.23;;;3.95;;
20810;SDS011;10566;52.928;10.522;2022-10-23T13:33:47;11.35;;;3.53;;
20810;SDS011;10566;52.928;10.522;2022-10-23T13:38:43;13.15;;;4.07;;
20810;SDS011;10566;52.928;10.522;2022-10-23T13:43:39;8.35;;;3.95;;
20810;SDS011;10566;52.928;10.522;2022-10-23T13:46:05;9.07;;;3.53;;
20810;SDS011;10566;52.928;10.522;2022-10-23T13:48:36;9.70;;;3.78;;
20810;SDS011;10566;52.928;10.522;2022-10-23T13:51:05;9.43;;;3.70;;
20810;SDS011;10566;52.928;10.522;2022-10-23T13:53:35;10.52;;;3.63;;
20810;SDS011;10566;52.928;10.522;2022-10-23T13:56:01;8.25;;;3.85;;
20810;SDS011;10566;52.928;10.522;2022-10-23T13:58:28;10.93;;;4.07;;
20810;SDS011;10566;52.928;10.522;2022-10-23T14:00:54;11.43;;;4.47;;
20810;SDS011;10566;52.928;10.522;2022-10-23T14:03:20;10.20;;;3.95;;
20810;SDS011;10566;52.928;10.522;2022-10-23T14:05:49;8.20;;;3.88;;
20810;SDS011;10566;52.928;10.522;2022-10-23T14:08:15;9.25;;;4.00;;
20810;SDS011;10566;52.928;10.522;2022-10-23T14:10:41;10.75;;;4.40;;
20810;SDS011;10566;52.928;10.522;2022-10-23T14:13:07;10.57;;;3.83;;
20810;SDS011;10566;52.928;10.522;2022-10-23T14:15:33;8.55;;;3.50;;
20810;SDS011;10566;52.928;10.522;2022-10-23T14:17:59;8.43;;;3.22;;
20810;SDS011;10566;52.928;10.522;2022-10-23T14:20:25;9.23;;;3.85;;
20810;SDS011;10566;52.928;10.522;2022-10-23T14:22:51;11.68;;;3.30;;
20810;SDS011;10566;52.928;10.522;2022-10-23T14:25:17;13.45;;;3.38;;
20810;SDS011;10566;52.928;10.522;2022-10-23T14:27:43;9.18;;;3.75;;
20810;SDS011;10566;52.928;10.522;2022-10-23T14:30:09;15.02;;;5.28;;
20810;SDS011;10566;52.928;10.522;2022-10-23T14:32:35;10.88;;;5.90;;
20810;SDS011;10566;52.928;10.522;2022-10-23T14:35:01;9.18;;;4.35;;
20810;SDS011;10566;52.928;10.522;2022-10-23T14:37:31;16.15;;;11.32;;
20810;SDS011;10566;52.928;10.522;2022-10-23T14:39:57;17.77;;;10.40;;
20810;SDS011;10566;52.928;10.522;2022-10-23T14:42:24;35.42;;;19.08;;
20810;SDS011;10566;52.928;10.522;2022-10-23T14:44:50;12.55;;;6.90;;
20810;SDS011;10566;52.928;10.522;2022-10-23T14:47:16;14.48;;;7.90;;
20810;SDS011;10566;52.928;10.522;2022-10-23T14:49:47;24.42;;;13.25;;
20810;SDS011;10566;52.928;10.522;2022-10-23T14:52:16;15.63;;;8.32;;
20810;SDS011;10566;52.928;10.522;2022-10-23T14:54:42;14.07;;;6.15;;
20810;SDS011;10566;52.928;10.522;2022-10-23T14:57:10;18.15;;;13.32;;
20810;SDS011;10566;52.928;10.522;2022-10-23T14:59:41;18.50;;;14.75;;
20810;SDS011;10566;52.928;10.522;2022-10-23T15:02:08;26.58;;;14.75;;
20810;SDS011;10566;52.928;10.522;2022-10-23T15:04:35;12.88;;;7.25;;
20810;SDS011;10566;52.928;10.522;2022-10-23T15:07:01;9.27;;;4.20;;
20810;SDS011;10566;52.928;10.522;2022-10-23T15:09:27;8.85;;;3.85;;
20810;SDS011;10566;52.928;10.522;2022-10-23T15:11:53;12.13;;;6.78;;
20810;SDS011;10566;52.928;10.522;2022-10-23T15:14:19;10.65;;;4.88;;
20810;SDS011;10566;52.928;10.522;2022-10-23T15:16:45;10.73;;;5.18;;
20810;SDS011;10566;52.928;10.522;2022-10-23T15:19:12;12.88;;;8.43;;
20810;SDS011;10566;52.928;10.522;2022-10-23T15:21:39;17.90;;;8.77;;
20810;SDS011;10566;52.928;10.522;2022-10-23T15:24:05;18.50;;;10.25;;
20810;SDS011;10566;52.928;10.522;2022-10-23T15:26:31;20.17;;;13.40;;
20810;SDS011;10566;52.928;10.522;2022-10-23T15:28:59;26.33;;;17.27;;
20810;SDS011;10566;52.928;10.522;2022-10-23T15:33:58;15.93;;;9.40;;
20810;SDS011;10566;52.928;10.522;2022-10-23T15:36:25;13.13;;;8.93;;
20810;SDS011;10566;52.928;10.522;2022-10-23T15:38:54;22.27;;;15.00;;
20810;SDS011;10566;52.928;10.522;2022-10-23T15:41:22;22.02;;;14.48;;
20810;SDS011;10566;52.928;10.522;2022-10-23T15:43:51;24.73;;;15.77;;
20810;SDS011;10566;52.928;10.522;2022-10-23T15:46:18;15.35;;;8.35;;
20810;SDS011;10566;52.928;10.522;2022-10-23T15:48:43;11.93;;;6.30;;
20810;SDS011;10566;52.928;10.522;2022-10-23T15:51:10;16.73;;;8.40;;
20810;SDS011;10566;52.928;10.522;2022-10-23T15:53:36;12.50;;;6.53;;
20810;SDS011;10566;52.928;10.522;2022-10-23T15:56:02;12.65;;;5.72;;
20810;SDS011;10566;52.928;10.522;2022-10-23T15:58:28;12.23;;;7.00;;